الصفحة الرئيسية
METAR-TAF:

METAR-TAF

مطار :

ليما, بيرو

دائرة عرض: 12-00S, خط طول: 077-07W, ارتفاع: 12 متر

مراقبة الطقس الحالي

تاريخ ووقت الإصدار 35 دقيقة قبل الساعة 09:00UTC
ريح 6 عقدة من الجنوب
درجة الحرارة 16°درجة مئوية
الرطوبة 88%
ضغط 1016 hPa
الرؤية 10 كم أو أكثر
ملبد بالغيوم على ارتفاع 1400 قدم

METAR: SPJC 170900Z 17006KT 9999 OVC014 16/14 Q1016 NOSIG RMK PP000

زمن: 04:35 (09:35 UTC)

توقعات

تاريخ ووقت الإصدار 4ساعات و 35 دقيقة قبل الساعة 05:00UTC
التوقعات صالحة من17 الساعة 06 UTC إلى 18 الساعة 06 UTC
ريح 8 عقدة من الجنوب/الجنوب الشرقي
الرؤية: 7000 متر
ملبد بالغيوم على ارتفاع 1200 قدم
مؤقت
من 17 الساعة 09 UTC إلى 17 الساعة 12 UTC
الرؤية: 5000 متر
ملبد بالغيوم على ارتفاع 800 قدم
رذاذ, غشاء
أصبح
من 17 الساعة 15 UTC إلى 17 الساعة 17 UTC
ريح 10 عقدة من الجنوب الغربي
غيوم مفككة على ارتفاع 1500 قدم
أصبح
من 17 الساعة 23 UTC إلى 18 الساعة 01 UTC
ملبد بالغيوم على ارتفاع 1200 قدم

TAF: SPJC 170500Z 1706/1806 16008KT 7000 OVC012 TX19/1718Z TN16/1711Z TEMPO 1709/1712 5000 DZ BR OVC008 BECMG 1715/1717 22010KT BKN015 BECMG 1723/1801 OVC012

أرصاد الطقس والتوقعات من أكثر من 4000 مطار (تقارير الطقس للمطار METAR والتنبؤ بالطقس بالمطارTAF).

المحطات المتاحة هي النقط الصفراء والحمراء على الخريطة.

حرك المؤشر فوق النقطة لمعرفة اسم المحطة.

ثم انقر لمعرفة أرصاد وتوقعات الطقس.

لتغيير الخارطة: اضغط على الأزرار الخضراء مع رمز الصليب الأسود للتكبير. على الزر الأخضر مع شرطة للتصغير، أو على الأسهم الخضراء للخرائط المجاورة.


METAR-TAF: